sensor_id;sensor_type;location;lat;lon;timestamp;temperature;humidity
44707;DHT22;30433;45.596;8.408;2022-08-21T00:00:37;21.50;92.90
44707;DHT22;30433;45.596;8.408;2022-08-21T00:06:40;21.60;92.90
44707;DHT22;30433;45.596;8.408;2022-08-21T00:12:42;21.20;92.90
44707;DHT22;30433;45.596;8.408;2022-08-21T00:18:46;21.30;92.90
44707;DHT22;30433;45.596;8.408;2022-08-21T00:24:48;21.10;93.10
44707;DHT22;30433;45.596;8.408;2022-08-21T00:30:50;21.10;93.30
44707;DHT22;30433;45.596;8.408;2022-08-21T00:36:54;20.80;93.40
44707;DHT22;30433;45.596;8.408;2022-08-21T00:42:56;20.70;93.60
44707;DHT22;30433;45.596;8.408;2022-08-21T00:48:58;20.70;93.50
44707;DHT22;30433;45.596;8.408;2022-08-21T00:55:02;20.60;93.60
44707;DHT22;30433;45.596;8.408;2022-08-21T01:01:05;20.50;93.70
44707;DHT22;30433;45.596;8.408;2022-08-21T01:07:08;20.60;93.50
44707;DHT22;30433;45.596;8.408;2022-08-21T01:13:14;20.60;93.60
44707;DHT22;30433;45.596;8.408;2022-08-21T01:19:18;20.70;93.80
44707;DHT22;30433;45.596;8.408;2022-08-21T01:25:23;20.70;93.70
44707;DHT22;30433;45.596;8.408;2022-08-21T01:31:26;20.90;93.50
44707;DHT22;30433;45.596;8.408;2022-08-21T01:37:28;20.70;93.60
44707;DHT22;30433;45.596;8.408;2022-08-21T01:43:32;20.60;93.20
44707;DHT22;30433;45.596;8.408;2022-08-21T01:49:35;20.60;93.40
44707;DHT22;30433;45.596;8.408;2022-08-21T01:55:37;20.60;93.10
44707;DHT22;30433;45.596;8.408;2022-08-21T02:01:41;20.40;93.30
44707;DHT22;30433;45.596;8.408;2022-08-21T02:07:45;20.60;93.40
44707;DHT22;30433;45.596;8.408;2022-08-21T02:13:48;20.70;93.60
44707;DHT22;30433;45.596;8.408;2022-08-21T02:19:51;20.50;93.40
44707;DHT22;30433;45.596;8.408;2022-08-21T02:25:53;20.40;93.50
44707;DHT22;30433;45.596;8.408;2022-08-21T02:31:56;20.20;93.50
44707;DHT22;30433;45.596;8.408;2022-08-21T02:38:02;20.50;93.60
44707;DHT22;30433;45.596;8.408;2022-08-21T02:44:05;20.60;93.00
44707;DHT22;30433;45.596;8.408;2022-08-21T02:50:07;20.50;93.20
44707;DHT22;30433;45.596;8.408;2022-08-21T02:56:13;20.50;93.30
44707;DHT22;30433;45.596;8.408;2022-08-21T03:02:16;20.40;93.20
44707;DHT22;30433;45.596;8.408;2022-08-21T03:08:19;20.20;93.20
44707;DHT22;30433;45.596;8.408;2022-08-21T03:14:23;20.30;93.50
44707;DHT22;30433;45.596;8.408;2022-08-21T03:20:27;20.50;93.30
44707;DHT22;30433;45.596;8.408;2022-08-21T03:26:30;20.20;93.00
44707;DHT22;30433;45.596;8.408;2022-08-21T03:32:34;20.40;93.00
44707;DHT22;30433;45.596;8.408;2022-08-21T03:38:37;19.90;93.30
44707;DHT22;30433;45.596;8.408;2022-08-21T03:44:39;19.90;93.30
44707;DHT22;30433;45.596;8.408;2022-08-21T03:50:44;19.90;93.40
44707;DHT22;30433;45.596;8.408;2022-08-21T03:56:47;19.90;93.20
44707;DHT22;30433;45.596;8.408;2022-08-21T04:02:50;20.00;93.80
44707;DHT22;30433;45.596;8.408;2022-08-21T04:08:54;20.00;93.40
44707;DHT22;30433;45.596;8.408;2022-08-21T04:14:56;19.80;93.20
44707;DHT22;30433;45.596;8.408;2022-08-21T04:20:59;19.70;93.30
44707;DHT22;30433;45.596;8.408;2022-08-21T04:27:03;19.40;93.50
44707;DHT22;30433;45.596;8.408;2022-08-21T04:33:05;19.50;93.70
44707;DHT22;30433;45.596;8.408;2022-08-21T04:39:07;19.50;93.10
44707;DHT22;30433;45.596;8.408;2022-08-21T04:45:18;19.80;93.60
44707;DHT22;30433;45.596;8.408;2022-08-21T04:51:25;19.60;93.90
44707;DHT22;30433;45.596;8.408;2022-08-21T04:57:29;19.50;94.10
44707;DHT22;30433;45.596;8.408;2022-08-21T05:03:35;20.60;94.00
44707;DHT22;30433;45.596;8.408;2022-08-21T05:09:38;21.50;92.60
44707;DHT22;30433;45.596;8.408;2022-08-21T05:15:41;21.50;92.70
44707;DHT22;30433;45.596;8.408;2022-08-21T05:21:45;20.70;91.90
44707;DHT22;30433;45.596;8.408;2022-08-21T05:27:48;21.80;91.30
44707;DHT22;30433;45.596;8.408;2022-08-21T05:33:50;22.70;91.20
44707;DHT22;30433;45.596;8.408;2022-08-21T05:39:53;21.50;91.00
44707;DHT22;30433;45.596;8.408;2022-08-21T05:45:55;21.60;91.20
44707;DHT22;30433;45.596;8.408;2022-08-21T05:51:58;23.40;90.50
44707;DHT22;30433;45.596;8.408;2022-08-21T05:58:01;23.50;90.10
44707;DHT22;30433;45.596;8.408;2022-08-21T06:04:04;22.90;90.80
44707;DHT22;30433;45.596;8.408;2022-08-21T06:10:07;23.30;90.50
44707;DHT22;30433;45.596;8.408;2022-08-21T06:16:12;22.50;90.40
44707;DHT22;30433;45.596;8.408;2022-08-21T06:22:15;22.50;90.10
44707;DHT22;30433;45.596;8.408;2022-08-21T06:28:18;23.20;90.20
44707;DHT22;30433;45.596;8.408;2022-08-21T06:34:21;23.20;89.50
44707;DHT22;30433;45.596;8.408;2022-08-21T06:40:24;23.00;89.50
44707;DHT22;30433;45.596;8.408;2022-08-21T06:46:30;23.20;88.70
44707;DHT22;30433;45.596;8.408;2022-08-21T06:52:34;24.70;88.10
44707;DHT22;30433;45.596;8.408;2022-08-21T06:58:37;24.30;87.70
44707;DHT22;30433;45.596;8.408;2022-08-21T07:04:39;24.50;88.30
44707;DHT22;30433;45.596;8.408;2022-08-21T07:10:42;24.50;87.00
44707;DHT22;30433;45.596;8.408;2022-08-21T07:16:45;24.60;86.40
44707;DHT22;30433;45.596;8.408;2022-08-21T07:22:47;24.70;86.50
44707;DHT22;30433;45.596;8.408;2022-08-21T07:28:51;25.20;85.40
44707;DHT22;30433;45.596;8.408;2022-08-21T07:34:54;25.70;84.40
44707;DHT22;30433;45.596;8.408;2022-08-21T07:40:57;25.20;84.10
44707;DHT22;30433;45.596;8.408;2022-08-21T07:47:01;25.20;85.50
44707;DHT22;30433;45.596;8.408;2022-08-21T07:53:04;25.40;85.90
44707;DHT22;30433;45.596;8.408;2022-08-21T07:59:06;25.70;86.40
44707;DHT22;30433;45.596;8.408;2022-08-21T08:05:10;26.00;86.60
44707;DHT22;30433;45.596;8.408;2022-08-21T08:11:13;26.30;85.00
44707;DHT22;30433;45.596;8.408;2022-08-21T08:17:16;26.60;83.50
44707;DHT22;30433;45.596;8.408;2022-08-21T08:23:24;26.50;81.10
44707;DHT22;30433;45.596;8.408;2022-08-21T08:29:26;26.80;81.60
44707;DHT22;30433;45.596;8.408;2022-08-21T08:35:30;26.70;80.90
44707;DHT22;30433;45.596;8.408;2022-08-21T08:41:34;26.80;80.70
44707;DHT22;30433;45.596;8.408;2022-08-21T08:47:42;27.30;81.30
44707;DHT22;30433;45.596;8.408;2022-08-21T08:53:51;27.50;81.20
44707;DHT22;30433;45.596;8.408;2022-08-21T08:59:56;27.40;79.50
44707;DHT22;30433;45.596;8.408;2022-08-21T09:06:06;27.60;75.80
44707;DHT22;30433;45.596;8.408;2022-08-21T09:12:14;28.20;76.60
44707;DHT22;30433;45.596;8.408;2022-08-21T09:18:28;28.40;75.90
44707;DHT22;30433;45.596;8.408;2022-08-21T09:24:50;28.20;76.70
44707;DHT22;30433;45.596;8.408;2022-08-21T09:30:55;28.30;74.00
44707;DHT22;30433;45.596;8.408;2022-08-21T09:37:04;28.20;76.60
44707;DHT22;30433;45.596;8.408;2022-08-21T09:43:20;28.50;74.30
44707;DHT22;30433;45.596;8.408;2022-08-21T09:49:27;28.80;76.00
44707;DHT22;30433;45.596;8.408;2022-08-21T09:55:34;29.10;75.30
44707;DHT22;30433;45.596;8.408;2022-08-21T10:01:58;28.80;75.00
44707;DHT22;30433;45.596;8.408;2022-08-21T10:08:02;29.40;70.80
44707;DHT22;30433;45.596;8.408;2022-08-21T10:14:14;29.20;74.90
44707;DHT22;30433;45.596;8.408;2022-08-21T10:20:22;29.00;72.00
44707;DHT22;30433;45.596;8.408;2022-08-21T10:26:32;29.60;72.30
44707;DHT22;30433;45.596;8.408;2022-08-21T10:32:55;29.80;72.50
44707;DHT22;30433;45.596;8.408;2022-08-21T10:39:05;29.70;73.70
44707;DHT22;30433;45.596;8.408;2022-08-21T10:45:26;29.70;75.20
44707;DHT22;30433;45.596;8.408;2022-08-21T10:51:38;30.00;74.60
44707;DHT22;30433;45.596;8.408;2022-08-21T10:57:46;29.70;75.50
44707;DHT22;30433;45.596;8.408;2022-08-21T11:03:53;30.10;75.20
44707;DHT22;30433;45.596;8.408;2022-08-21T11:10:01;30.00;75.20
44707;DHT22;30433;45.596;8.408;2022-08-21T11:16:10;30.00;73.50
44707;DHT22;30433;45.596;8.408;2022-08-21T11:22:18;29.90;74.20
44707;DHT22;30433;45.596;8.408;2022-08-21T11:28:28;30.20;73.40
44707;DHT22;30433;45.596;8.408;2022-08-21T11:34:45;30.50;73.80
44707;DHT22;30433;45.596;8.408;2022-08-21T11:41:08;30.50;72.70
44707;DHT22;30433;45.596;8.408;2022-08-21T11:47:19;29.80;69.70
44707;DHT22;30433;45.596;8.408;2022-08-21T11:53:26;30.20;70.10
44707;DHT22;30433;45.596;8.408;2022-08-21T11:59:37;30.60;72.30
44707;DHT22;30433;45.596;8.408;2022-08-21T12:05:44;30.60;70.90
44707;DHT22;30433;45.596;8.408;2022-08-21T12:12:01;30.90;70.00
44707;DHT22;30433;45.596;8.408;2022-08-21T12:18:06;29.90;67.90
44707;DHT22;30433;45.596;8.408;2022-08-21T12:24:19;30.70;69.30
44707;DHT22;30433;45.596;8.408;2022-08-21T12:30:33;31.10;70.10
44707;DHT22;30433;45.596;8.408;2022-08-21T12:36:43;31.10;69.10
44707;DHT22;30433;45.596;8.408;2022-08-21T12:42:50;30.50;69.70
44707;DHT22;30433;45.596;8.408;2022-08-21T12:48:57;31.30;70.20
44707;DHT22;30433;45.596;8.408;2022-08-21T12:55:00;31.10;70.00
44707;DHT22;30433;45.596;8.408;2022-08-21T13:01:08;31.20;71.00
44707;DHT22;30433;45.596;8.408;2022-08-21T13:07:19;30.90;70.80
44707;DHT22;30433;45.596;8.408;2022-08-21T13:13:25;30.90;70.50
44707;DHT22;30433;45.596;8.408;2022-08-21T13:19:29;31.00;71.20
44707;DHT22;30433;45.596;8.408;2022-08-21T13:25:35;30.90;70.20
44707;DHT22;30433;45.596;8.408;2022-08-21T13:31:39;30.80;72.80
44707;DHT22;30433;45.596;8.408;2022-08-21T13:37:46;30.80;69.90
44707;DHT22;30433;45.596;8.408;2022-08-21T13:43:56;30.80;69.80
44707;DHT22;30433;45.596;8.408;2022-08-21T13:49:59;30.70;69.80
44707;DHT22;30433;45.596;8.408;2022-08-21T13:56:04;30.70;69.20
44707;DHT22;30433;45.596;8.408;2022-08-21T14:02:12;30.50;70.40
44707;DHT22;30433;45.596;8.408;2022-08-21T14:08:23;30.40;70.30
44707;DHT22;30433;45.596;8.408;2022-08-21T14:14:31;30.40;71.00
44707;DHT22;30433;45.596;8.408;2022-08-21T14:20:36;30.30;70.40
44707;DHT22;30433;45.596;8.408;2022-08-21T14:26:45;30.20;70.90
44707;DHT22;30433;45.596;8.408;2022-08-21T14:32:50;30.30;71.60
44707;DHT22;30433;45.596;8.408;2022-08-21T14:38:53;30.10;70.00
44707;DHT22;30433;45.596;8.408;2022-08-21T14:44:59;30.10;70.30
44707;DHT22;30433;45.596;8.408;2022-08-21T14:51:04;30.10;70.50
44707;DHT22;30433;45.596;8.408;2022-08-21T14:57:08;30.10;70.60
44707;DHT22;30433;45.596;8.408;2022-08-21T15:03:12;29.90;72.30
44707;DHT22;30433;45.596;8.408;2022-08-21T15:09:16;30.00;71.10
44707;DHT22;30433;45.596;8.408;2022-08-21T15:15:18;29.90;71.30
44707;DHT22;30433;45.596;8.408;2022-08-21T15:21:21;29.80;72.40
44707;DHT22;30433;45.596;8.408;2022-08-21T15:27:25;29.70;70.70
44707;DHT22;30433;45.596;8.408;2022-08-21T15:33:27;29.70;71.40
44707;DHT22;30433;45.596;8.408;2022-08-21T15:39:30;29.70;69.40
44707;DHT22;30433;45.596;8.408;2022-08-21T15:45:34;29.60;70.40
44707;DHT22;30433;45.596;8.408;2022-08-21T15:51:36;29.70;72.50
44707;DHT22;30433;45.596;8.408;2022-08-21T15:57:44;29.50;72.50
44707;DHT22;30433;45.596;8.408;2022-08-21T16:03:50;29.40;73.30
44707;DHT22;30433;45.596;8.408;2022-08-21T16:09:54;29.30;73.60
44707;DHT22;30433;45.596;8.408;2022-08-21T16:15:56;29.20;74.50
44707;DHT22;30433;45.596;8.408;2022-08-21T16:22:00;29.10;75.00
44707;DHT22;30433;45.596;8.408;2022-08-21T16:28:05;28.90;75.00
44707;DHT22;30433;45.596;8.408;2022-08-21T16:34:17;28.60;75.20
44707;DHT22;30433;45.596;8.408;2022-08-21T16:40:25;28.50;74.90
44707;DHT22;30433;45.596;8.408;2022-08-21T16:46:29;28.50;77.10
44707;DHT22;30433;45.596;8.408;2022-08-21T16:52:32;28.20;77.10
44707;DHT22;30433;45.596;8.408;2022-08-21T16:58:38;28.30;76.80
44707;DHT22;30433;45.596;8.408;2022-08-21T17:04:40;28.20;77.90
44707;DHT22;30433;45.596;8.408;2022-08-21T17:10:46;28.10;77.60
44707;DHT22;30433;45.596;8.408;2022-08-21T17:16:52;27.90;80.10
44707;DHT22;30433;45.596;8.408;2022-08-21T17:22:55;27.70;81.40
44707;DHT22;30433;45.596;8.408;2022-08-21T17:28:57;27.50;83.10
44707;DHT22;30433;45.596;8.408;2022-08-21T17:35:02;27.40;83.30
44707;DHT22;30433;45.596;8.408;2022-08-21T17:41:05;27.10;82.70
44707;DHT22;30433;45.596;8.408;2022-08-21T17:47:08;27.00;83.60
44707;DHT22;30433;45.596;8.408;2022-08-21T17:53:12;26.80;84.50
44707;DHT22;30433;45.596;8.408;2022-08-21T17:59:14;26.40;85.90
44707;DHT22;30433;45.596;8.408;2022-08-21T18:05:17;26.40;86.20
44707;DHT22;30433;45.596;8.408;2022-08-21T18:11:24;26.20;89.60
44707;DHT22;30433;45.596;8.408;2022-08-21T18:17:26;25.80;89.50
44707;DHT22;30433;45.596;8.408;2022-08-21T18:23:30;25.60;89.90
44707;DHT22;30433;45.596;8.408;2022-08-21T18:29:34;25.30;90.80
44707;DHT22;30433;45.596;8.408;2022-08-21T18:35:37;25.20;91.70
44707;DHT22;30433;45.596;8.408;2022-08-21T18:41:40;23.90;94.10
44707;DHT22;30433;45.596;8.408;2022-08-21T18:47:45;24.30;94.40
44707;DHT22;30433;45.596;8.408;2022-08-21T18:53:48;24.50;93.60
44707;DHT22;30433;45.596;8.408;2022-08-21T18:59:51;24.30;93.80
44707;DHT22;30433;45.596;8.408;2022-08-21T19:05:55;24.10;94.50
44707;DHT22;30433;45.596;8.408;2022-08-21T19:11:57;23.90;94.90
44707;DHT22;30433;45.596;8.408;2022-08-21T19:18:01;23.80;95.40
44707;DHT22;30433;45.596;8.408;2022-08-21T19:24:06;23.60;95.50
44707;DHT22;30433;45.596;8.408;2022-08-21T19:30:09;23.70;95.60
44707;DHT22;30433;45.596;8.408;2022-08-21T19:36:13;23.00;96.70
44707;DHT22;30433;45.596;8.408;2022-08-21T19:42:17;23.10;95.90
44707;DHT22;30433;45.596;8.408;2022-08-21T19:48:22;23.10;95.30
44707;DHT22;30433;45.596;8.408;2022-08-21T19:54:26;23.50;94.50
44707;DHT22;30433;45.596;8.408;2022-08-21T20:00:30;23.50;95.10
44707;DHT22;30433;45.596;8.408;2022-08-21T20:06:33;23.30;94.80
44707;DHT22;30433;45.596;8.408;2022-08-21T20:12:36;23.00;95.80
44707;DHT22;30433;45.596;8.408;2022-08-21T20:18:40;22.20;95.90
44707;DHT22;30433;45.596;8.408;2022-08-21T20:24:43;22.50;95.00
44707;DHT22;30433;45.596;8.408;2022-08-21T20:30:46;22.60;94.90
44707;DHT22;30433;45.596;8.408;2022-08-21T20:36:50;22.50;95.80
44707;DHT22;30433;45.596;8.408;2022-08-21T20:42:53;22.40;95.90
44707;DHT22;30433;45.596;8.408;2022-08-21T20:48:56;22.60;94.40
44707;DHT22;30433;45.596;8.408;2022-08-21T20:55:06;22.50;94.40
44707;DHT22;30433;45.596;8.408;2022-08-21T21:01:09;22.60;94.50
44707;DHT22;30433;45.596;8.408;2022-08-21T21:07:17;22.80;94.00
44707;DHT22;30433;45.596;8.408;2022-08-21T21:13:28;22.50;94.20
44707;DHT22;30433;45.596;8.408;2022-08-21T21:19:36;22.40;94.50
44707;DHT22;30433;45.596;8.408;2022-08-21T21:25:46;22.60;94.10
44707;DHT22;30433;45.596;8.408;2022-08-21T21:31:52;22.50;94.30
44707;DHT22;30433;45.596;8.408;2022-08-21T21:37:59;22.10;94.60
44707;DHT22;30433;45.596;8.408;2022-08-21T21:44:36;21.90;94.80
44707;DHT22;30433;45.596;8.408;2022-08-21T21:50:51;21.70;95.10
44707;DHT22;30433;45.596;8.408;2022-08-21T21:56:59;21.80;94.70
44707;DHT22;30433;45.596;8.408;2022-08-21T22:03:09;21.60;95.00
44707;DHT22;30433;45.596;8.408;2022-08-21T22:09:19;21.60;95.20
44707;DHT22;30433;45.596;8.408;2022-08-21T22:15:23;21.50;95.50
44707;DHT22;30433;45.596;8.408;2022-08-21T22:21:30;21.40;95.60
44707;DHT22;30433;45.596;8.408;2022-08-21T22:27:37;21.60;95.20
44707;DHT22;30433;45.596;8.408;2022-08-21T22:33:40;21.40;95.40
44707;DHT22;30433;45.596;8.408;2022-08-21T22:39:43;21.60;95.20
44707;DHT22;30433;45.596;8.408;2022-08-21T22:45:55;21.50;95.00
44707;DHT22;30433;45.596;8.408;2022-08-21T22:52:09;21.50;95.00
44707;DHT22;30433;45.596;8.408;2022-08-21T22:58:17;21.50;95.00
44707;DHT22;30433;45.596;8.408;2022-08-21T23:04:23;21.60;94.80
44707;DHT22;30433;45.596;8.408;2022-08-21T23:10:28;21.60;94.50
44707;DHT22;30433;45.596;8.408;2022-08-21T23:16:37;21.40;94.90
44707;DHT22;30433;45.596;8.408;2022-08-21T23:22:54;21.30;95.10
44707;DHT22;30433;45.596;8.408;2022-08-21T23:29:07;21.20;95.40
44707;DHT22;30433;45.596;8.408;2022-08-21T23:35:15;21.40;95.00
44707;DHT22;30433;45.596;8.408;2022-08-21T23:41:29;21.40;95.30
44707;DHT22;30433;45.596;8.408;2022-08-21T23:47:39;21.30;95.20
44707;DHT22;30433;45.596;8.408;2022-08-21T23:53:53;21.40;94.90
